sensor_id;sensor_type;location;lat;lon;timestamp;temperature;humidity
38860;DHT22;24609;48.316;16.174;2022-07-06T00:00:46;14.00;99.90
38860;DHT22;24609;48.316;16.174;2022-07-06T00:03:12;14.00;99.90
38860;DHT22;24609;48.316;16.174;2022-07-06T00:05:37;13.90;99.90
38860;DHT22;24609;48.316;16.174;2022-07-06T00:08:03;13.80;99.90
38860;DHT22;24609;48.316;16.174;2022-07-06T00:10:29;13.80;99.90
38860;DHT22;24609;48.316;16.174;2022-07-06T00:12:55;13.80;99.90
38860;DHT22;24609;48.316;16.174;2022-07-06T00:15:21;13.80;99.90
38860;DHT22;24609;48.316;16.174;2022-07-06T00:17:46;13.80;99.90
38860;DHT22;24609;48.316;16.174;2022-07-06T00:20:12;13.80;99.90
38860;DHT22;24609;48.316;16.174;2022-07-06T00:22:38;13.70;99.90
38860;DHT22;24609;48.316;16.174;2022-07-06T00:25:03;13.80;99.90
38860;DHT22;24609;48.316;16.174;2022-07-06T00:27:29;13.70;99.90
38860;DHT22;24609;48.316;16.174;2022-07-06T00:29:55;13.70;99.90
38860;DHT22;24609;48.316;16.174;2022-07-06T00:32:21;13.70;99.90
38860;DHT22;24609;48.316;16.174;2022-07-06T00:34:46;13.80;99.90
38860;DHT22;24609;48.316;16.174;2022-07-06T00:37:12;13.90;99.90
38860;DHT22;24609;48.316;16.174;2022-07-06T00:39:40;14.00;99.90
38860;DHT22;24609;48.316;16.174;2022-07-06T00:42:06;14.10;99.90
38860;DHT22;24609;48.316;16.174;2022-07-06T00:44:32;14.30;99.90
38860;DHT22;24609;48.316;16.174;2022-07-06T00:46:59;14.40;99.90
38860;DHT22;24609;48.316;16.174;2022-07-06T00:49:25;14.60;99.90
38860;DHT22;24609;48.316;16.174;2022-07-06T00:52:09;14.70;99.90
38860;DHT22;24609;48.316;16.174;2022-07-06T00:54:36;14.80;99.90
38860;DHT22;24609;48.316;16.174;2022-07-06T00:57:02;14.90;99.90
38860;DHT22;24609;48.316;16.174;2022-07-06T00:59:28;15.00;99.90
38860;DHT22;24609;48.316;16.174;2022-07-06T01:01:54;15.00;99.90
38860;DHT22;24609;48.316;16.174;2022-07-06T01:04:19;15.10;99.90
38860;DHT22;24609;48.316;16.174;2022-07-06T01:06:46;15.10;99.90
38860;DHT22;24609;48.316;16.174;2022-07-06T01:09:13;15.10;99.90
38860;DHT22;24609;48.316;16.174;2022-07-06T01:11:39;15.20;99.90
38860;DHT22;24609;48.316;16.174;2022-07-06T01:14:05;15.10;99.90
38860;DHT22;24609;48.316;16.174;2022-07-06T01:16:31;15.10;99.90
38860;DHT22;24609;48.316;16.174;2022-07-06T01:18:57;15.00;99.90
38860;DHT22;24609;48.316;16.174;2022-07-06T01:21:23;15.00;99.90
38860;DHT22;24609;48.316;16.174;2022-07-06T01:23:49;14.90;99.90
38860;DHT22;24609;48.316;16.174;2022-07-06T01:26:19;14.80;99.90
38860;DHT22;24609;48.316;16.174;2022-07-06T01:28:46;14.80;99.90
38860;DHT22;24609;48.316;16.174;2022-07-06T01:31:19;14.70;99.90
38860;DHT22;24609;48.316;16.174;2022-07-06T01:33:45;14.60;99.90
38860;DHT22;24609;48.316;16.174;2022-07-06T01:36:11;14.60;99.90
38860;DHT22;24609;48.316;16.174;2022-07-06T01:38:51;14.60;99.90
38860;DHT22;24609;48.316;16.174;2022-07-06T01:41:18;14.60;99.90
38860;DHT22;24609;48.316;16.174;2022-07-06T01:43:44;14.60;99.90
38860;DHT22;24609;48.316;16.174;2022-07-06T01:46:10;14.70;99.90
38860;DHT22;24609;48.316;16.174;2022-07-06T01:48:36;14.70;99.90
38860;DHT22;24609;48.316;16.174;2022-07-06T01:51:03;14.70;99.90
38860;DHT22;24609;48.316;16.174;2022-07-06T01:53:29;14.70;99.90
38860;DHT22;24609;48.316;16.174;2022-07-06T01:55:55;14.70;99.90
38860;DHT22;24609;48.316;16.174;2022-07-06T01:58:21;14.70;99.90
38860;DHT22;24609;48.316;16.174;2022-07-06T02:00:47;14.60;99.90
38860;DHT22;24609;48.316;16.174;2022-07-06T02:03:13;14.60;99.90
38860;DHT22;24609;48.316;16.174;2022-07-06T02:05:38;14.40;99.90
38860;DHT22;24609;48.316;16.174;2022-07-06T02:08:04;14.40;99.90
38860;DHT22;24609;48.316;16.174;2022-07-06T02:10:30;14.40;99.90
38860;DHT22;24609;48.316;16.174;2022-07-06T02:12:55;14.30;99.90
38860;DHT22;24609;48.316;16.174;2022-07-06T02:15:21;14.20;99.90
38860;DHT22;24609;48.316;16.174;2022-07-06T02:17:47;14.20;99.90
38860;DHT22;24609;48.316;16.174;2022-07-06T02:20:12;14.20;99.90
38860;DHT22;24609;48.316;16.174;2022-07-06T02:22:38;14.20;99.90
38860;DHT22;24609;48.316;16.174;2022-07-06T02:25:04;14.10;99.90
38860;DHT22;24609;48.316;16.174;2022-07-06T02:27:30;14.20;99.90
38860;DHT22;24609;48.316;16.174;2022-07-06T02:29:56;14.20;99.90
38860;DHT22;24609;48.316;16.174;2022-07-06T02:32:22;14.20;99.90
38860;DHT22;24609;48.316;16.174;2022-07-06T02:34:48;14.10;99.90
38860;DHT22;24609;48.316;16.174;2022-07-06T02:37:14;14.00;99.90
38860;DHT22;24609;48.316;16.174;2022-07-06T02:39:40;14.00;99.90
38860;DHT22;24609;48.316;16.174;2022-07-06T02:42:05;14.00;99.90
38860;DHT22;24609;48.316;16.174;2022-07-06T02:44:31;14.20;99.90
38860;DHT22;24609;48.316;16.174;2022-07-06T02:46:57;14.20;99.90
38860;DHT22;24609;48.316;16.174;2022-07-06T02:49:23;14.40;99.90
38860;DHT22;24609;48.316;16.174;2022-07-06T02:51:48;14.40;99.90
38860;DHT22;24609;48.316;16.174;2022-07-06T02:54:14;14.40;99.90
38860;DHT22;24609;48.316;16.174;2022-07-06T02:56:40;14.40;99.90
38860;DHT22;24609;48.316;16.174;2022-07-06T02:59:05;14.40;99.90
38860;DHT22;24609;48.316;16.174;2022-07-06T03:01:31;14.40;99.90
38860;DHT22;24609;48.316;16.174;2022-07-06T03:03:57;14.30;99.90
38860;DHT22;24609;48.316;16.174;2022-07-06T03:06:22;14.30;99.90
38860;DHT22;24609;48.316;16.174;2022-07-06T03:08:48;14.30;99.90
38860;DHT22;24609;48.316;16.174;2022-07-06T03:11:14;14.30;99.90
38860;DHT22;24609;48.316;16.174;2022-07-06T03:13:39;14.50;99.90
38860;DHT22;24609;48.316;16.174;2022-07-06T03:16:05;14.50;99.90
38860;DHT22;24609;48.316;16.174;2022-07-06T03:18:31;14.60;99.90
38860;DHT22;24609;48.316;16.174;2022-07-06T03:20:56;14.60;99.90
38860;DHT22;24609;48.316;16.174;2022-07-06T03:23:22;14.50;99.90
38860;DHT22;24609;48.316;16.174;2022-07-06T03:25:48;14.30;99.90
38860;DHT22;24609;48.316;16.174;2022-07-06T03:28:14;14.10;99.90
38860;DHT22;24609;48.316;16.174;2022-07-06T03:30:40;14.00;99.90
38860;DHT22;24609;48.316;16.174;2022-07-06T03:33:05;13.90;99.90
38860;DHT22;24609;48.316;16.174;2022-07-06T03:35:31;13.90;99.90
38860;DHT22;24609;48.316;16.174;2022-07-06T03:37:57;13.90;99.90
38860;DHT22;24609;48.316;16.174;2022-07-06T03:40:22;13.90;99.90
38860;DHT22;24609;48.316;16.174;2022-07-06T03:42:48;13.90;99.90
38860;DHT22;24609;48.316;16.174;2022-07-06T03:45:14;13.90;99.90
38860;DHT22;24609;48.316;16.174;2022-07-06T03:47:40;14.10;99.90
38860;DHT22;24609;48.316;16.174;2022-07-06T03:50:06;14.40;99.90
38860;DHT22;24609;48.316;16.174;2022-07-06T03:52:32;14.50;99.90
38860;DHT22;24609;48.316;16.174;2022-07-06T03:54:59;14.60;99.90
38860;DHT22;24609;48.316;16.174;2022-07-06T03:57:25;14.70;99.90
38860;DHT22;24609;48.316;16.174;2022-07-06T03:59:51;14.90;99.90
38860;DHT22;24609;48.316;16.174;2022-07-06T04:02:17;15.00;99.90
38860;DHT22;24609;48.316;16.174;2022-07-06T04:04:42;15.00;99.90
38860;DHT22;24609;48.316;16.174;2022-07-06T04:07:08;15.10;99.90
38860;DHT22;24609;48.316;16.174;2022-07-06T04:09:34;15.20;99.90
38860;DHT22;24609;48.316;16.174;2022-07-06T04:11:59;15.30;99.90
38860;DHT22;24609;48.316;16.174;2022-07-06T04:14:25;15.50;99.90
38860;DHT22;24609;48.316;16.174;2022-07-06T04:16:52;15.60;99.90
38860;DHT22;24609;48.316;16.174;2022-07-06T04:19:18;15.70;99.90
38860;DHT22;24609;48.316;16.174;2022-07-06T04:21:44;15.80;99.90
38860;DHT22;24609;48.316;16.174;2022-07-06T04:24:09;16.00;99.90
38860;DHT22;24609;48.316;16.174;2022-07-06T04:26:35;16.10;99.90
38860;DHT22;24609;48.316;16.174;2022-07-06T04:29:01;16.20;99.90
38860;DHT22;24609;48.316;16.174;2022-07-06T04:31:26;16.30;99.90
38860;DHT22;24609;48.316;16.174;2022-07-06T04:33:52;16.60;99.90
38860;DHT22;24609;48.316;16.174;2022-07-06T04:36:18;16.80;99.90
38860;DHT22;24609;48.316;16.174;2022-07-06T04:38:43;16.90;99.90
38860;DHT22;24609;48.316;16.174;2022-07-06T04:41:09;16.90;99.90
38860;DHT22;24609;48.316;16.174;2022-07-06T04:43:35;17.00;99.90
38860;DHT22;24609;48.316;16.174;2022-07-06T04:46:00;17.50;99.90
38860;DHT22;24609;48.316;16.174;2022-07-06T04:48:26;18.00;99.90
38860;DHT22;24609;48.316;16.174;2022-07-06T04:50:52;18.40;99.90
38860;DHT22;24609;48.316;16.174;2022-07-06T04:53:18;18.80;99.90
38860;DHT22;24609;48.316;16.174;2022-07-06T04:55:43;19.10;99.90
38860;DHT22;24609;48.316;16.174;2022-07-06T04:58:09;19.40;99.90
38860;DHT22;24609;48.316;16.174;2022-07-06T05:00:35;19.70;99.90
38860;DHT22;24609;48.316;16.174;2022-07-06T05:03:01;20.00;99.90
38860;DHT22;24609;48.316;16.174;2022-07-06T05:05:26;20.20;99.90
38860;DHT22;24609;48.316;16.174;2022-07-06T05:07:52;20.30;99.90
38860;DHT22;24609;48.316;16.174;2022-07-06T05:10:18;20.00;99.90
38860;DHT22;24609;48.316;16.174;2022-07-06T05:12:43;20.30;99.90
38860;DHT22;24609;48.316;16.174;2022-07-06T05:15:09;20.50;99.90
38860;DHT22;24609;48.316;16.174;2022-07-06T05:17:35;20.90;99.90
38860;DHT22;24609;48.316;16.174;2022-07-06T05:20:01;20.70;99.90
38860;DHT22;24609;48.316;16.174;2022-07-06T05:22:27;20.50;99.90
38860;DHT22;24609;48.316;16.174;2022-07-06T05:24:52;20.40;99.90
38860;DHT22;24609;48.316;16.174;2022-07-06T05:27:18;20.20;99.90
38860;DHT22;24609;48.316;16.174;2022-07-06T05:29:44;20.50;99.90
38860;DHT22;24609;48.316;16.174;2022-07-06T05:32:09;20.30;99.90
38860;DHT22;24609;48.316;16.174;2022-07-06T05:34:35;20.50;99.90
38860;DHT22;24609;48.316;16.174;2022-07-06T05:37:02;20.30;99.90
38860;DHT22;24609;48.316;16.174;2022-07-06T05:39:28;20.80;99.90
38860;DHT22;24609;48.316;16.174;2022-07-06T05:41:54;21.30;99.90
38860;DHT22;24609;48.316;16.174;2022-07-06T05:44:19;21.60;99.90
38860;DHT22;24609;48.316;16.174;2022-07-06T05:46:45;21.60;99.90
38860;DHT22;24609;48.316;16.174;2022-07-06T05:49:11;21.10;99.90
38860;DHT22;24609;48.316;16.174;2022-07-06T05:51:55;20.60;99.90
38860;DHT22;24609;48.316;16.174;2022-07-06T05:54:21;20.80;99.90
38860;DHT22;24609;48.316;16.174;2022-07-06T05:56:46;21.30;99.90
38860;DHT22;24609;48.316;16.174;2022-07-06T05:59:12;22.00;99.90
38860;DHT22;24609;48.316;16.174;2022-07-06T06:01:38;22.90;79.70
38860;DHT22;24609;48.316;16.174;2022-07-06T06:04:03;23.80;1.00
38860;DHT22;24609;48.316;16.174;2022-07-06T06:06:29;24.20;1.00
38860;DHT22;24609;48.316;16.174;2022-07-06T06:08:56;25.00;1.00
38860;DHT22;24609;48.316;16.174;2022-07-06T06:11:22;25.00;99.90
38860;DHT22;24609;48.316;16.174;2022-07-06T06:13:48;25.20;99.90
38860;DHT22;24609;48.316;16.174;2022-07-06T06:16:13;26.20;99.90
38860;DHT22;24609;48.316;16.174;2022-07-06T06:18:41;25.70;99.90
38860;DHT22;24609;48.316;16.174;2022-07-06T06:21:06;25.80;99.90
38860;DHT22;24609;48.316;16.174;2022-07-06T06:23:32;24.80;1.00
38860;DHT22;24609;48.316;16.174;2022-07-06T06:25:58;24.70;99.90
38860;DHT22;24609;48.316;16.174;2022-07-06T06:28:23;24.80;99.90
38860;DHT22;24609;48.316;16.174;2022-07-06T06:30:49;24.60;99.90
38860;DHT22;24609;48.316;16.174;2022-07-06T06:33:17;23.70;1.00
38860;DHT22;24609;48.316;16.174;2022-07-06T06:35:45;23.80;1.00
38860;DHT22;24609;48.316;16.174;2022-07-06T06:38:12;22.80;1.00
38860;DHT22;24609;48.316;16.174;2022-07-06T06:40:38;23.20;1.00
38860;DHT22;24609;48.316;16.174;2022-07-06T06:43:04;23.40;1.00
38860;DHT22;24609;48.316;16.174;2022-07-06T06:45:30;23.90;1.00
38860;DHT22;24609;48.316;16.174;2022-07-06T06:47:55;24.10;99.90
38860;DHT22;24609;48.316;16.174;2022-07-06T06:50:21;24.70;99.90
38860;DHT22;24609;48.316;16.174;2022-07-06T06:52:49;25.50;99.90
38860;DHT22;24609;48.316;16.174;2022-07-06T06:55:15;25.10;1.00
38860;DHT22;24609;48.316;16.174;2022-07-06T06:57:41;24.90;99.90
38860;DHT22;24609;48.316;16.174;2022-07-06T07:00:07;24.30;99.90
38860;DHT22;24609;48.316;16.174;2022-07-06T07:02:33;24.60;1.00
38860;DHT22;24609;48.316;16.174;2022-07-06T07:04:59;24.00;78.40
38860;DHT22;24609;48.316;16.174;2022-07-06T07:07:25;23.70;99.90
38860;DHT22;24609;48.316;16.174;2022-07-06T07:09:51;24.00;99.90
38860;DHT22;24609;48.316;16.174;2022-07-06T07:12:16;25.10;1.00
38860;DHT22;24609;48.316;16.174;2022-07-06T07:14:43;25.80;99.90
38860;DHT22;24609;48.316;16.174;2022-07-06T07:17:09;24.90;99.90
38860;DHT22;24609;48.316;16.174;2022-07-06T07:19:36;25.30;99.90
38860;DHT22;24609;48.316;16.174;2022-07-06T07:22:01;26.20;99.90
38860;DHT22;24609;48.316;16.174;2022-07-06T07:24:27;24.60;1.00
38860;DHT22;24609;48.316;16.174;2022-07-06T07:26:53;24.20;99.90
38860;DHT22;24609;48.316;16.174;2022-07-06T07:29:18;24.00;1.00
38860;DHT22;24609;48.316;16.174;2022-07-06T07:31:44;23.50;99.90
38860;DHT22;24609;48.316;16.174;2022-07-06T07:34:10;23.00;1.00
38860;DHT22;24609;48.316;16.174;2022-07-06T07:36:36;22.80;1.00
38860;DHT22;24609;48.316;16.174;2022-07-06T07:39:02;22.80;1.00
38860;DHT22;24609;48.316;16.174;2022-07-06T07:41:28;22.40;1.00
38860;DHT22;24609;48.316;16.174;2022-07-06T07:43:54;22.30;1.00
38860;DHT22;24609;48.316;16.174;2022-07-06T07:46:19;22.90;99.90
38860;DHT22;24609;48.316;16.174;2022-07-06T07:48:45;23.80;1.00
38860;DHT22;24609;48.316;16.174;2022-07-06T07:51:11;24.50;46.90
38860;DHT22;24609;48.316;16.174;2022-07-06T07:53:36;25.10;92.30
38860;DHT22;24609;48.316;16.174;2022-07-06T07:56:02;25.10;1.00
38860;DHT22;24609;48.316;16.174;2022-07-06T07:58:28;24.70;1.00
38860;DHT22;24609;48.316;16.174;2022-07-06T08:00:54;25.00;1.00
38860;DHT22;24609;48.316;16.174;2022-07-06T08:03:19;25.50;1.00
38860;DHT22;24609;48.316;16.174;2022-07-06T08:05:45;26.40;1.00
38860;DHT22;24609;48.316;16.174;2022-07-06T08:08:13;26.60;17.90
38860;DHT22;24609;48.316;16.174;2022-07-06T08:10:39;26.60;55.70
38860;DHT22;24609;48.316;16.174;2022-07-06T08:13:05;27.30;59.90
38860;DHT22;24609;48.316;16.174;2022-07-06T08:15:33;27.90;67.60
38860;DHT22;24609;48.316;16.174;2022-07-06T08:17:59;28.20;69.30
38860;DHT22;24609;48.316;16.174;2022-07-06T08:20:25;28.50;82.70
38860;DHT22;24609;48.316;16.174;2022-07-06T08:22:51;30.20;92.90
38860;DHT22;24609;48.316;16.174;2022-07-06T08:25:17;30.70;89.50
38860;DHT22;24609;48.316;16.174;2022-07-06T08:27:43;31.00;87.40
38860;DHT22;24609;48.316;16.174;2022-07-06T08:30:09;30.40;79.90
38860;DHT22;24609;48.316;16.174;2022-07-06T08:32:43;29.70;83.70
38860;DHT22;24609;48.316;16.174;2022-07-06T08:35:09;31.10;80.90
38860;DHT22;24609;48.316;16.174;2022-07-06T08:37:35;31.40;81.60
38860;DHT22;24609;48.316;16.174;2022-07-06T08:40:02;31.50;82.00
38860;DHT22;24609;48.316;16.174;2022-07-06T08:42:33;32.20;77.70
38860;DHT22;24609;48.316;16.174;2022-07-06T08:45:00;33.20;70.00
38860;DHT22;24609;48.316;16.174;2022-07-06T08:47:27;33.70;66.50
38860;DHT22;24609;48.316;16.174;2022-07-06T08:49:54;32.50;69.30
38860;DHT22;24609;48.316;16.174;2022-07-06T08:52:20;33.70;65.80
38860;DHT22;24609;48.316;16.174;2022-07-06T08:54:46;32.40;64.30
38860;DHT22;24609;48.316;16.174;2022-07-06T08:57:12;31.90;65.10
38860;DHT22;24609;48.316;16.174;2022-07-06T08:59:39;31.80;67.90
38860;DHT22;24609;48.316;16.174;2022-07-06T09:02:05;32.60;65.60
38860;DHT22;24609;48.316;16.174;2022-07-06T09:04:32;33.40;65.30
38860;DHT22;24609;48.316;16.174;2022-07-06T09:06:59;33.60;66.20
38860;DHT22;24609;48.316;16.174;2022-07-06T09:09:25;33.20;66.30
38860;DHT22;24609;48.316;16.174;2022-07-06T09:11:51;33.60;62.40
38860;DHT22;24609;48.316;16.174;2022-07-06T09:14:17;32.40;59.20
38860;DHT22;24609;48.316;16.174;2022-07-06T09:16:45;32.70;60.00
38860;DHT22;24609;48.316;16.174;2022-07-06T09:19:12;34.00;58.50
38860;DHT22;24609;48.316;16.174;2022-07-06T09:21:39;32.90;58.40
38860;DHT22;24609;48.316;16.174;2022-07-06T09:24:09;33.50;58.00
38860;DHT22;24609;48.316;16.174;2022-07-06T09:26:36;35.10;56.20
38860;DHT22;24609;48.316;16.174;2022-07-06T09:29:03;37.20;55.80
38860;DHT22;24609;48.316;16.174;2022-07-06T09:31:29;36.20;55.30
38860;DHT22;24609;48.316;16.174;2022-07-06T09:36:42;35.50;58.30
38860;DHT22;24609;48.316;16.174;2022-07-06T09:39:23;38.90;50.60
38860;DHT22;24609;48.316;16.174;2022-07-06T09:41:59;40.30;99.90
38860;DHT22;24609;48.316;16.174;2022-07-06T09:44:29;41.90;1.00
38860;DHT22;24609;48.316;16.174;2022-07-06T09:46:57;39.40;1.00
38860;DHT22;24609;48.316;16.174;2022-07-06T09:49:24;37.20;1.00
38860;DHT22;24609;48.316;16.174;2022-07-06T09:51:52;34.70;1.00
38860;DHT22;24609;48.316;16.174;2022-07-06T09:54:18;31.90;1.00
38860;DHT22;24609;48.316;16.174;2022-07-06T09:56:46;31.60;1.00
38860;DHT22;24609;48.316;16.174;2022-07-06T09:59:22;31.60;1.00
38860;DHT22;24609;48.316;16.174;2022-07-06T10:01:52;32.50;1.00
38860;DHT22;24609;48.316;16.174;2022-07-06T10:04:19;36.10;1.00
38860;DHT22;24609;48.316;16.174;2022-07-06T10:06:46;39.70;1.00
38860;DHT22;24609;48.316;16.174;2022-07-06T10:09:13;37.80;1.00
38860;DHT22;24609;48.316;16.174;2022-07-06T10:11:41;35.80;1.00
38860;DHT22;24609;48.316;16.174;2022-07-06T10:14:08;36.70;1.00
38860;DHT22;24609;48.316;16.174;2022-07-06T10:16:36;36.00;1.00
38860;DHT22;24609;48.316;16.174;2022-07-06T10:19:05;32.70;1.00
38860;DHT22;24609;48.316;16.174;2022-07-06T10:21:33;30.60;1.00
38860;DHT22;24609;48.316;16.174;2022-07-06T10:23:59;28.90;1.00
38860;DHT22;24609;48.316;16.174;2022-07-06T10:26:26;28.20;1.00
38860;DHT22;24609;48.316;16.174;2022-07-06T10:28:52;29.00;1.00
38860;DHT22;24609;48.316;16.174;2022-07-06T10:31:19;29.30;1.00
38860;DHT22;24609;48.316;16.174;2022-07-06T10:33:46;32.70;99.90
38860;DHT22;24609;48.316;16.174;2022-07-06T10:36:13;35.40;99.90
38860;DHT22;24609;48.316;16.174;2022-07-06T10:38:40;34.90;99.90
38860;DHT22;24609;48.316;16.174;2022-07-06T10:41:08;35.10;99.90
38860;DHT22;24609;48.316;16.174;2022-07-06T10:43:35;35.40;99.90
38860;DHT22;24609;48.316;16.174;2022-07-06T10:46:08;33.60;99.90
38860;DHT22;24609;48.316;16.174;2022-07-06T10:48:38;31.00;99.90
38860;DHT22;24609;48.316;16.174;2022-07-06T10:51:04;30.40;99.90
38860;DHT22;24609;48.316;16.174;2022-07-06T10:53:37;28.60;99.90
38860;DHT22;24609;48.316;16.174;2022-07-06T10:56:08;26.80;99.90
38860;DHT22;24609;48.316;16.174;2022-07-06T10:58:39;25.70;99.90
38860;DHT22;24609;48.316;16.174;2022-07-06T11:01:09;24.70;99.90
38860;DHT22;24609;48.316;16.174;2022-07-06T11:03:46;23.90;99.90
38860;DHT22;24609;48.316;16.174;2022-07-06T11:11:19;32.90;99.90
38860;DHT22;24609;48.316;16.174;2022-07-06T11:14:05;33.90;99.90
38860;DHT22;24609;48.316;16.174;2022-07-06T11:16:33;37.00;99.90
38860;DHT22;24609;48.316;16.174;2022-07-06T11:19:00;35.30;99.90
38860;DHT22;24609;48.316;16.174;2022-07-06T11:24:04;30.30;99.90
38860;DHT22;24609;48.316;16.174;2022-07-06T11:26:31;34.70;99.90
38860;DHT22;24609;48.316;16.174;2022-07-06T11:28:59;36.80;99.90
38860;DHT22;24609;48.316;16.174;2022-07-06T11:31:27;38.90;99.90
38860;DHT22;24609;48.316;16.174;2022-07-06T11:33:53;40.50;99.90
38860;DHT22;24609;48.316;16.174;2022-07-06T11:36:20;40.00;99.90
38860;DHT22;24609;48.316;16.174;2022-07-06T11:38:47;40.20;99.90
38860;DHT22;24609;48.316;16.174;2022-07-06T11:41:14;40.40;99.90
38860;DHT22;24609;48.316;16.174;2022-07-06T11:43:44;39.10;99.90
38860;DHT22;24609;48.316;16.174;2022-07-06T11:48:59;42.30;99.90
38860;DHT22;24609;48.316;16.174;2022-07-06T11:51:27;41.30;99.90
38860;DHT22;24609;48.316;16.174;2022-07-06T11:53:58;39.60;99.90
38860;DHT22;24609;48.316;16.174;2022-07-06T11:56:29;39.60;99.90
38860;DHT22;24609;48.316;16.174;2022-07-06T11:58:59;41.10;99.90
38860;DHT22;24609;48.316;16.174;2022-07-06T12:01:27;41.90;99.90
38860;DHT22;24609;48.316;16.174;2022-07-06T12:04:01;41.50;99.90
38860;DHT22;24609;48.316;16.174;2022-07-06T12:06:30;43.80;99.90
38860;DHT22;24609;48.316;16.174;2022-07-06T12:09:00;38.80;1.00
38860;DHT22;24609;48.316;16.174;2022-07-06T12:11:38;34.00;1.00
38860;DHT22;24609;48.316;16.174;2022-07-06T12:14:23;31.80;1.00
38860;DHT22;24609;48.316;16.174;2022-07-06T12:16:50;30.10;1.00
38860;DHT22;24609;48.316;16.174;2022-07-06T12:19:16;29.70;1.00
38860;DHT22;24609;48.316;16.174;2022-07-06T12:21:46;28.50;1.00
38860;DHT22;24609;48.316;16.174;2022-07-06T12:24:22;28.60;1.00
38860;DHT22;24609;48.316;16.174;2022-07-06T12:26:49;29.80;1.00
38860;DHT22;24609;48.316;16.174;2022-07-06T12:29:16;31.30;99.90
38860;DHT22;24609;48.316;16.174;2022-07-06T12:31:53;36.20;1.00
38860;DHT22;24609;48.316;16.174;2022-07-06T12:34:21;39.50;1.00
38860;DHT22;24609;48.316;16.174;2022-07-06T12:36:48;40.90;1.00
38860;DHT22;24609;48.316;16.174;2022-07-06T12:39:16;40.50;99.90
38860;DHT22;24609;48.316;16.174;2022-07-06T12:41:47;39.90;99.90
38860;DHT22;24609;48.316;16.174;2022-07-06T12:44:13;39.70;99.90
38860;DHT22;24609;48.316;16.174;2022-07-06T12:46:41;41.60;99.90
38860;DHT22;24609;48.316;16.174;2022-07-06T12:52:02;40.20;99.90
38860;DHT22;24609;48.316;16.174;2022-07-06T12:54:52;38.60;99.90
38860;DHT22;24609;48.316;16.174;2022-07-06T12:57:25;37.60;99.90
38860;DHT22;24609;48.316;16.174;2022-07-06T12:59:57;36.40;99.90
38860;DHT22;24609;48.316;16.174;2022-07-06T13:02:30;34.00;99.90
38860;DHT22;24609;48.316;16.174;2022-07-06T13:05:08;31.30;99.90
38860;DHT22;24609;48.316;16.174;2022-07-06T13:07:36;29.60;99.90
38860;DHT22;24609;48.316;16.174;2022-07-06T13:10:07;28.90;99.90
38860;DHT22;24609;48.316;16.174;2022-07-06T13:12:33;28.40;99.90
38860;DHT22;24609;48.316;16.174;2022-07-06T13:14:59;29.70;99.90
38860;DHT22;24609;48.316;16.174;2022-07-06T13:17:25;30.50;99.90
38860;DHT22;24609;48.316;16.174;2022-07-06T13:19:50;30.70;99.90
38860;DHT22;24609;48.316;16.174;2022-07-06T13:22:16;29.20;99.90
38860;DHT22;24609;48.316;16.174;2022-07-06T13:24:42;28.10;99.90
38860;DHT22;24609;48.316;16.174;2022-07-06T13:27:08;27.50;99.90
38860;DHT22;24609;48.316;16.174;2022-07-06T13:29:34;27.10;99.90
38860;DHT22;24609;48.316;16.174;2022-07-06T13:32:01;27.00;99.90
38860;DHT22;24609;48.316;16.174;2022-07-06T13:34:26;26.90;99.90
38860;DHT22;24609;48.316;16.174;2022-07-06T13:36:52;26.20;99.90
38860;DHT22;24609;48.316;16.174;2022-07-06T13:39:18;25.40;99.90
38860;DHT22;24609;48.316;16.174;2022-07-06T13:41:44;25.10;99.90
38860;DHT22;24609;48.316;16.174;2022-07-06T13:44:11;24.90;99.90
38860;DHT22;24609;48.316;16.174;2022-07-06T13:46:38;24.80;99.90
38860;DHT22;24609;48.316;16.174;2022-07-06T13:49:04;24.80;99.90
38860;DHT22;24609;48.316;16.174;2022-07-06T13:51:30;25.10;99.90
38860;DHT22;24609;48.316;16.174;2022-07-06T13:53:58;25.40;99.90
38860;DHT22;24609;48.316;16.174;2022-07-06T13:56:25;25.80;99.90
38860;DHT22;24609;48.316;16.174;2022-07-06T13:58:51;26.00;99.90
38860;DHT22;24609;48.316;16.174;2022-07-06T14:01:17;25.70;99.90
38860;DHT22;24609;48.316;16.174;2022-07-06T14:03:43;25.30;99.90
38860;DHT22;24609;48.316;16.174;2022-07-06T14:06:09;25.20;99.90
38860;DHT22;24609;48.316;16.174;2022-07-06T14:08:36;24.80;99.90
38860;DHT22;24609;48.316;16.174;2022-07-06T14:11:03;24.50;99.90
38860;DHT22;24609;48.316;16.174;2022-07-06T14:13:29;23.80;99.90
38860;DHT22;24609;48.316;16.174;2022-07-06T14:15:55;23.30;1.00
38860;DHT22;24609;48.316;16.174;2022-07-06T14:18:21;22.50;1.00
38860;DHT22;24609;48.316;16.174;2022-07-06T14:20:48;21.90;99.90
38860;DHT22;24609;48.316;16.174;2022-07-06T14:23:14;21.60;1.00
38860;DHT22;24609;48.316;16.174;2022-07-06T14:25:41;21.40;99.90
38860;DHT22;24609;48.316;16.174;2022-07-06T14:28:07;21.20;99.90
38860;DHT22;24609;48.316;16.174;2022-07-06T14:30:36;21.20;99.90
38860;DHT22;24609;48.316;16.174;2022-07-06T14:33:07;21.10;99.90
38860;DHT22;24609;48.316;16.174;2022-07-06T14:35:37;20.90;1.00
38860;DHT22;24609;48.316;16.174;2022-07-06T14:38:04;19.90;1.00
38860;DHT22;24609;48.316;16.174;2022-07-06T14:40:31;19.30;92.80
38860;DHT22;24609;48.316;16.174;2022-07-06T14:42:57;19.30;22.60
38860;DHT22;24609;48.316;16.174;2022-07-06T14:45:23;19.40;1.00
38860;DHT22;24609;48.316;16.174;2022-07-06T14:47:49;20.20;1.00
38860;DHT22;24609;48.316;16.174;2022-07-06T14:50:15;20.70;99.90
38860;DHT22;24609;48.316;16.174;2022-07-06T14:52:40;21.30;1.00
38860;DHT22;24609;48.316;16.174;2022-07-06T14:55:06;21.70;99.90
38860;DHT22;24609;48.316;16.174;2022-07-06T14:57:32;22.60;99.90
38860;DHT22;24609;48.316;16.174;2022-07-06T14:59:58;24.90;99.90
38860;DHT22;24609;48.316;16.174;2022-07-06T15:02:24;26.30;99.90
38860;DHT22;24609;48.316;16.174;2022-07-06T15:04:49;26.60;1.00
38860;DHT22;24609;48.316;16.174;2022-07-06T15:07:15;26.30;1.00
38860;DHT22;24609;48.316;16.174;2022-07-06T15:09:42;27.60;1.00
38860;DHT22;24609;48.316;16.174;2022-07-06T15:12:08;32.20;99.90
38860;DHT22;24609;48.316;16.174;2022-07-06T15:14:33;36.30;79.80
38860;DHT22;24609;48.316;16.174;2022-07-06T15:16:59;37.70;1.00
38860;DHT22;24609;48.316;16.174;2022-07-06T15:19:25;36.00;1.00
38860;DHT22;24609;48.316;16.174;2022-07-06T15:21:52;33.00;1.00
38860;DHT22;24609;48.316;16.174;2022-07-06T15:24:18;34.20;1.00
38860;DHT22;24609;48.316;16.174;2022-07-06T15:26:44;35.80;99.90
38860;DHT22;24609;48.316;16.174;2022-07-06T15:29:10;36.90;99.90
38860;DHT22;24609;48.316;16.174;2022-07-06T15:31:35;36.30;99.90
38860;DHT22;24609;48.316;16.174;2022-07-06T15:34:01;35.50;99.90